Chubu Centrair International Airport
RJGG : now visible

Airfield :











YOU CAN JOIN US ON...

 
LOGIN :

Register | Disclaimer

   EN    FR    IT 

 









Legend :    VFR   Marginal VFR   IFR   Intensive IFR   Very Intensive IFR
Visi :
Ceiling :
>= 8 km
>= 3000ft
5 to 8 km
1000 to 3000 ft
1500m to 5 km
500 to 1000 ft
800 to 1500m
200 to 500 ft
< 800m
< 200 ft
Symbols :   Thunderstorms  Fog  Heavy snow  Heavy precipitations  Wind > 20 kt






- Airport Elevation : 15 ft
- IATA code : NGO


RJGG - Chubu Centrair International

CURRENT METAR :
  • 220130Z 12003KT 080V160 9999 FEW025 SCT070 BKN090 11/08 Q1023 BECMG 04005KT

EXPIRED METARs :
  • 220030Z 01006KT 8000 FEW025 SCT070 BKN090 10/07 Q1024 NOSIG
  • 212300Z 08003KT 8000 FEW025 SCT100 BKN120 10/07 Q1025 NOSIG
  • 212230Z 11006KT 8000 FEW025 BKN100 09/07 Q1025 NOSIG

TAF AMD TAF RJGG
Valid from the 21 at 20:00 until the 23 at 00:00 UTC


212011Z 2120/2300 14006KT 9999 FEW015 SCT030
BECMG 2202/2204 20016KT
TEMPO 2205/2209 4000 SHRA BR
BECMG 2206/2209 28024KT



MET'MAP, your aeronautical weather chart ! - Copyright ORBIFLY December 2007 - Disclaimer

ORBIFLY MET'MAP TEAM :

Programming & Development : Alexandra Zaïnal
Concept & original design : Baudouin d'Aumeries
Assistance for programming : Marc-Olivier Méhu
Technical & hardware support : Manuel Goepfert

Contact : metmap@orbifly.com




SOURCES & CREDITS :

   NOAA       Earth
Advisory